createdAt,value
2019-05-07T00:00:22.125Z,96517.09
2019-05-07T00:02:48.866Z,96508.45
2019-05-07T00:05:15.512Z,96512.47
2019-05-07T00:07:42.562Z,96513.19
2019-05-07T00:10:09.281Z,96511.20
2019-05-07T00:12:35.992Z,96512.44
2019-05-07T00:15:04.604Z,96507.92
2019-05-07T00:17:32.293Z,96509.66
2019-05-07T00:19:59.083Z,96505.34
2019-05-07T00:22:25.729Z,96501.86
2019-05-07T00:24:52.348Z,96507.20
2019-05-07T00:27:19.046Z,96507.41
2019-05-07T00:29:45.712Z,96504.42
2019-05-07T00:32:12.327Z,96501.07
2019-05-07T00:34:44.124Z,96497.48
2019-05-07T00:37:25.991Z,96503.13
2019-05-07T00:40:25.319Z,96501.28
2019-05-07T00:43:23.365Z,96499.36
2019-05-07T00:46:02.331Z,96508.48
2019-05-07T00:48:29.078Z,96499.77
2019-05-07T00:51:15.210Z,96502.66
2019-05-07T00:53:42.369Z,96500.19
2019-05-07T00:56:09.148Z,96504.79
2019-05-07T00:58:35.749Z,96509.39
2019-05-07T01:01:02.645Z,96504.08
2019-05-07T01:03:29.304Z,96503.66
2019-05-07T01:05:55.940Z,96498.61
2019-05-07T01:08:22.760Z,96506.42
2019-05-07T01:10:49.491Z,96509.48
2019-05-07T01:13:16.134Z,96506.09
2019-05-07T01:15:43.129Z,96506.88
2019-05-07T01:18:12.195Z,96513.35
2019-05-07T01:20:38.435Z,96506.77
2019-05-07T01:23:05.050Z,96504.19
2019-05-07T01:25:32.859Z,96506.55
2019-05-07T01:27:59.683Z,96504.91
2019-05-07T01:30:26.283Z,96503.45
2019-05-07T01:33:03.182Z,96508.16
2019-05-07T01:35:47.953Z,96505.10
2019-05-07T01:38:16.464Z,96505.10
2019-05-07T01:40:43.113Z,96502.83
2019-05-07T01:43:11.937Z,96503.63
2019-05-07T01:45:48.798Z,96505.43
2019-05-07T01:48:12.151Z,96504.59
2019-05-07T01:50:38.770Z,96504.25
2019-05-07T01:53:05.485Z,96499.11
2019-05-07T01:55:32.097Z,96500.28
2019-05-07T01:57:58.723Z,96497.89
2019-05-07T02:00:25.373Z,96498.00
2019-05-07T02:02:57.743Z,96497.25
2019-05-07T02:05:33.179Z,96499.98
2019-05-07T02:08:02.939Z,96501.70
2019-05-07T02:11:04.189Z,96501.06
2019-05-07T02:13:30.815Z,96500.47
2019-05-07T02:16:00.982Z,96506.69
2019-05-07T02:18:25.930Z,96502.58
2019-05-07T02:20:52.512Z,96498.02
2019-05-07T02:23:19.139Z,96499.93
2019-05-07T02:25:45.748Z,96498.70
2019-05-07T02:28:12.833Z,96499.78
2019-05-07T02:30:39.624Z,96498.52
2019-05-07T02:33:06.230Z,96497.89
2019-05-07T02:35:33.465Z,96492.12
2019-05-07T02:38:13.745Z,96500.02
2019-05-07T02:40:53.473Z,96491.47
2019-05-07T02:43:22.620Z,96487.55
2019-05-07T02:46:20.660Z,96492.23
2019-05-07T02:48:36.713Z,96489.19
2019-05-07T02:51:16.415Z,96489.83
2019-05-07T02:53:53.670Z,96484.50
2019-05-07T02:56:20.051Z,96485.84
2019-05-07T02:58:46.658Z,96479.76
2019-05-07T03:01:13.997Z,96483.94
2019-05-07T03:03:40.748Z,96481.25
2019-05-07T03:06:07.407Z,96484.16
2019-05-07T03:08:34.031Z,96482.27
2019-05-07T03:11:03.399Z,96474.38
2019-05-07T03:13:29.279Z,96475.45
2019-05-07T03:15:55.908Z,96469.69
2019-05-07T03:18:23.386Z,96464.44
2019-05-07T03:20:54.493Z,96466.59
2019-05-07T03:23:24.834Z,96464.63
2019-05-07T03:26:13.983Z,96459.91
2019-05-07T03:28:58.034Z,96464.91
2019-05-07T03:31:46.807Z,96465.09
2019-05-07T03:34:26.821Z,96470.47
2019-05-07T03:36:56.352Z,96471.80
2019-05-07T03:39:24.171Z,96471.98
2019-05-07T03:41:53.154Z,96469.01
2019-05-07T03:44:44.524Z,96464.70
2019-05-07T03:47:39.199Z,96470.02
2019-05-07T03:50:06.436Z,96465.72
2019-05-07T03:52:33.687Z,96476.03
2019-05-07T03:55:03.357Z,96477.55
2019-05-07T03:57:29.038Z,96471.22
2019-05-07T03:59:55.727Z,96474.83
2019-05-07T04:02:23.891Z,96480.78
2019-05-07T04:04:52.864Z,96482.05
2019-05-07T04:07:19.421Z,96480.53
2019-05-07T04:09:46.090Z,96483.83
2019-05-07T04:12:13.352Z,96482.09
2019-05-07T04:14:42.906Z,96478.05
2019-05-07T04:17:22.115Z,96482.66
2019-05-07T04:19:37.204Z,96484.12
2019-05-07T04:22:04.477Z,96489.06
2019-05-07T04:24:48.364Z,96487.35
2019-05-07T04:27:24.052Z,96490.23
2019-05-07T04:29:53.250Z,96487.20
2019-05-07T04:32:23.201Z,96487.13
2019-05-07T04:35:08.941Z,96487.08
2019-05-07T04:37:35.587Z,96487.48
2019-05-07T04:40:03.121Z,96489.95
2019-05-07T04:42:33.100Z,96478.94
2019-05-07T04:44:58.790Z,96483.17
2019-05-07T04:47:38.548Z,96479.44
2019-05-07T04:49:54.035Z,96484.27
2019-05-07T04:52:33.360Z,96482.81
2019-05-07T04:54:58.463Z,96486.12
2019-05-07T04:57:25.221Z,96486.48
2019-05-07T04:59:53.357Z,96492.37
2019-05-07T05:02:23.126Z,96487.69
2019-05-07T05:04:49.911Z,96481.59
2019-05-07T05:07:16.620Z,96489.90
2019-05-07T05:09:43.299Z,96485.83
2019-05-07T05:12:09.929Z,96478.08
2019-05-07T05:14:36.678Z,96480.66
2019-05-07T05:17:03.433Z,96481.30
2019-05-07T05:19:32.186Z,96484.70
2019-05-07T05:22:08.511Z,96479.80
2019-05-07T05:24:42.398Z,96484.23
2019-05-07T05:27:09.165Z,96476.98
2019-05-07T05:29:36.579Z,96479.05
2019-05-07T05:32:03.292Z,96482.16
2019-05-07T05:34:29.914Z,96483.00
2019-05-07T05:36:56.564Z,96483.25
2019-05-07T05:39:23.268Z,96485.42
2019-05-07T05:41:53.925Z,96486.70
2019-05-07T05:44:32.035Z,96483.33
2019-05-07T05:46:58.998Z,96486.38
2019-05-07T05:49:25.692Z,96474.34
2019-05-07T05:52:18.077Z,96478.91
2019-05-07T05:55:07.026Z,96479.34
2019-05-07T05:57:51.895Z,96480.91
2019-05-07T06:00:36.540Z,96488.43
2019-05-07T06:03:25.690Z,96485.22
2019-05-07T06:06:04.774Z,96485.53
2019-05-07T06:08:45.816Z,96487.13
2019-05-07T06:11:18.430Z,96496.02
2019-05-07T06:14:02.129Z,96490.44
2019-05-07T06:16:33.225Z,96491.17
2019-05-07T06:19:22.560Z,96493.47
2019-05-07T06:22:17.239Z,96490.84
2019-05-07T06:24:56.596Z,96492.56
2019-05-07T06:27:23.358Z,96488.41
2019-05-07T06:29:52.282Z,96483.44
2019-05-07T06:32:19.360Z,96494.98
2019-05-07T06:34:46.084Z,96490.02
2019-05-07T06:37:12.701Z,96491.88
2019-05-07T06:39:48.181Z,96485.39
2019-05-07T06:42:34.772Z,96487.77
2019-05-07T06:45:06.791Z,96492.54
2019-05-07T06:47:33.548Z,96491.78
2019-05-07T06:50:00.239Z,96488.96
2019-05-07T06:52:26.855Z,96489.70
2019-05-07T06:54:53.574Z,96488.66
2019-05-07T06:57:22.193Z,96488.59
2019-05-07T06:59:53.127Z,96489.04
2019-05-07T07:02:41.806Z,96485.60
2019-05-07T07:13:49.047Z,96485.31
2019-05-07T07:16:15.669Z,96487.25
2019-05-07T07:18:52.114Z,96483.38
2019-05-07T07:21:16.823Z,96477.27
2019-05-07T07:23:43.447Z,96478.98
2019-05-07T07:26:12.471Z,96480.07
2019-05-07T07:28:45.037Z,96475.15
2019-05-07T07:31:31.846Z,96476.14
2019-05-07T07:39:24.719Z,96468.04
2019-05-07T07:42:02.976Z,96471.87
2019-05-07T07:44:37.567Z,96472.70
2019-05-07T07:47:04.239Z,96473.61
2019-05-07T07:49:33.002Z,96468.99
2019-05-07T07:52:05.425Z,96474.02
2019-05-07T07:54:32.272Z,96464.57
2019-05-07T08:02:55.187Z,96463.42
2019-05-07T08:05:22.011Z,96459.92
2019-05-07T08:08:02.133Z,96463.66
2019-05-07T08:10:34.893Z,96464.05
2019-05-07T08:13:02.083Z,96457.47
2019-05-07T08:15:39.707Z,96458.45
2019-05-07T08:18:06.364Z,96457.86
2019-05-07T08:20:32.994Z,96458.09
2019-05-07T08:22:59.600Z,96458.99
2019-05-07T08:25:45.730Z,96455.28
2019-05-07T08:28:12.438Z,96443.49
2019-05-07T08:33:37.631Z,96432.34
2019-05-07T08:36:23.886Z,96431.08
2019-05-07T08:39:10.026Z,96430.08
2019-05-07T08:41:36.674Z,96431.98
2019-05-07T08:44:22.866Z,96426.19
2019-05-07T08:47:08.979Z,96422.77
2019-05-07T08:52:29.980Z,96407.32
2019-05-07T08:54:56.700Z,96412.23
2019-05-07T08:57:23.401Z,96418.24
2019-05-07T08:59:58.498Z,96412.58
2019-05-07T09:02:28.374Z,96417.76
2019-05-07T09:04:54.989Z,96417.89
2019-05-07T09:07:22.044Z,96423.14
2019-05-07T09:09:56.571Z,96414.39
2019-05-07T09:12:23.307Z,96414.77
2019-05-07T09:14:49.944Z,96408.31
2019-05-07T09:17:16.555Z,96412.35
2019-05-07T09:19:50.681Z,96407.97
2019-05-07T09:22:18.112Z,96407.03
2019-05-07T09:24:44.895Z,96408.70
2019-05-07T09:27:32.775Z,96403.23
2019-05-07T09:30:28.257Z,96401.95
2019-05-07T09:35:52.888Z,96395.64
2019-05-07T09:38:25.716Z,96386.63
2019-05-07T09:40:52.529Z,96388.11
2019-05-07T09:43:32.276Z,96388.86
2019-05-07T09:46:05.476Z,96380.89
2019-05-07T09:48:33.856Z,96378.75
2019-05-07T09:51:12.243Z,96376.41
2019-05-07T09:53:45.632Z,96375.48
2019-05-07T09:56:12.427Z,96374.34
2019-05-07T09:58:39.349Z,96372.91
2019-05-07T10:01:14.247Z,96363.30
2019-05-07T10:03:42.840Z,96369.72
2019-05-07T10:06:15.370Z,96369.38
2019-05-07T10:08:42.112Z,96365.61
2019-05-07T10:14:06.835Z,96370.61
2019-05-07T10:16:53.030Z,96359.27
2019-05-07T10:19:22.116Z,96364.48
2019-05-07T10:21:54.901Z,96358.77
2019-05-07T10:24:22.213Z,96359.63
2019-05-07T10:26:56.295Z,96347.70
2019-05-07T10:29:22.941Z,96341.09
2019-05-07T10:31:49.609Z,96340.80
2019-05-07T10:34:16.262Z,96327.97
2019-05-07T10:36:42.879Z,96329.30
2019-05-07T10:39:09.602Z,96322.23
2019-05-07T10:41:36.251Z,96326.59
2019-05-07T10:44:02.876Z,96327.16
2019-05-07T10:46:48.965Z,96322.58
2019-05-07T10:49:35.082Z,96318.51
2019-05-07T10:52:02.207Z,96321.72
2019-05-07T10:54:40.630Z,96317.64
2019-05-07T10:57:07.267Z,96320.61
2019-05-07T10:59:33.993Z,96318.94
2019-05-07T11:02:21.851Z,96307.37
2019-05-07T11:04:54.541Z,96306.83
2019-05-07T11:07:22.252Z,96299.39
2019-05-07T11:09:59.457Z,96296.78
2019-05-07T11:12:26.149Z,96292.24
2019-05-07T11:14:52.753Z,96287.88
2019-05-07T11:20:07.607Z,96285.53
2019-05-07T11:22:34.229Z,96288.44
2019-05-07T11:25:02.872Z,96284.20
2019-05-07T11:27:35.819Z,96277.48
2019-05-07T11:30:02.808Z,96275.06
2019-05-07T11:32:37.463Z,96273.97
2019-05-07T11:35:04.125Z,96266.11
2019-05-07T11:37:30.738Z,96270.49
2019-05-07T11:39:57.365Z,96268.59
2019-05-07T11:42:45.114Z,96267.50
2019-05-07T11:48:01.917Z,96247.59
2019-05-07T11:51:03.263Z,96243.59
2019-05-07T11:53:30.114Z,96238.26
2019-05-07T11:56:08.913Z,96237.94
2019-05-07T11:58:35.562Z,96230.94
2019-05-07T12:03:44.326Z,96232.09
2019-05-07T12:06:12.425Z,96219.59
2019-05-07T12:08:51.783Z,96219.05
2019-05-07T12:11:21.878Z,96216.10
2019-05-07T12:13:59.192Z,96222.28
2019-05-07T12:16:25.934Z,96225.23
2019-05-07T12:18:55.493Z,96226.87
2019-05-07T12:21:27.250Z,96223.59
2019-05-07T12:23:54.000Z,96215.33
2019-05-07T12:26:22.248Z,96221.91
2019-05-07T12:28:59.221Z,96218.98
2019-05-07T12:31:45.409Z,96213.84
2019-05-07T12:36:54.979Z,96200.22
2019-05-07T12:39:22.015Z,96196.68
2019-05-07T12:41:56.740Z,96191.64
2019-05-07T12:44:23.357Z,96198.05
2019-05-07T12:46:50.003Z,96190.69
2019-05-07T12:49:16.633Z,96190.91
2019-05-07T12:52:02.753Z,96190.21
2019-05-07T12:54:48.967Z,96182.48
2019-05-07T12:57:15.744Z,96177.61
2019-05-07T12:59:42.667Z,96161.48
2019-05-07T13:05:03.716Z,96159.85
2019-05-07T13:07:49.845Z,96154.95
2019-05-07T13:10:36.011Z,96155.20
2019-05-07T13:13:02.691Z,96144.00
2019-05-07T13:15:29.396Z,96150.16
2019-05-07T13:17:56.111Z,96143.91
2019-05-07T13:20:22.879Z,96137.69
2019-05-07T13:22:49.530Z,96133.52
2019-05-07T13:28:03.222Z,96144.27
2019-05-07T13:30:29.986Z,96143.25
2019-05-07T13:32:56.771Z,96137.00
2019-05-07T13:35:23.815Z,96136.07
2019-05-07T13:38:11.807Z,96129.50
2019-05-07T13:41:05.847Z,96128.68
2019-05-07T13:49:09.975Z,96119.53
2019-05-07T13:51:36.920Z,96113.44
2019-05-07T13:54:03.874Z,96115.06
2019-05-07T13:56:32.489Z,96114.98
2019-05-07T13:59:05.599Z,96105.08
2019-05-07T14:01:51.724Z,96091.15
2019-05-07T14:04:18.452Z,96084.49
2019-05-07T14:06:45.115Z,96084.58
2019-05-07T14:12:12.308Z,96077.88
2019-05-07T14:14:46.653Z,96081.02
2019-05-07T14:17:13.392Z,96075.41
2019-05-07T14:19:42.149Z,96070.16
2019-05-07T14:27:36.010Z,96074.23
2019-05-07T14:30:04.086Z,96070.72
2019-05-07T14:41:02.700Z,96079.39
2019-05-07T14:46:50.942Z,96067.53
2019-05-07T14:49:16.380Z,96067.28
2019-05-07T14:51:44.984Z,96066.38
2019-05-07T14:54:27.010Z,96064.22
2019-05-07T14:57:02.262Z,96061.78
2019-05-07T14:59:23.731Z,96059.95
2019-05-07T15:01:52.216Z,96057.45
2019-05-07T15:04:29.302Z,96058.73
2019-05-07T15:09:55.551Z,96057.23
2019-05-07T15:12:23.365Z,96054.28
2019-05-07T15:14:57.543Z,96053.98
2019-05-07T15:20:23.715Z,96059.84
2019-05-07T15:25:33.996Z,96052.03
2019-05-07T15:28:01.778Z,96053.87
2019-05-07T15:30:58.388Z,96058.31
2019-05-07T15:33:25.036Z,96057.03
2019-05-07T15:35:52.192Z,96057.48
2019-05-07T15:38:26.348Z,96063.07
2019-05-07T15:40:53.071Z,96059.10
2019-05-07T15:46:22.594Z,96054.41
2019-05-07T15:48:55.529Z,96059.58
2019-05-07T15:51:22.573Z,96051.09
2019-05-07T15:54:00.650Z,96056.95
2019-05-07T15:56:27.479Z,96047.75
2019-05-07T15:58:57.343Z,96042.31
2019-05-07T16:01:24.368Z,96033.86
2019-05-07T16:03:54.418Z,96033.64
2019-05-07T16:06:29.334Z,96035.52
2019-05-07T16:11:57.913Z,96033.98
2019-05-07T16:14:26.785Z,96038.33
2019-05-07T16:17:24.514Z,96040.75
2019-05-07T16:19:54.977Z,96036.06
2019-05-07T16:25:43.750Z,96033.38
2019-05-07T16:28:12.622Z,96036.28
2019-05-07T16:30:48.882Z,96037.94
2019-05-07T16:33:15.510Z,96025.51
2019-05-07T16:35:42.692Z,96029.92
2019-05-07T16:38:18.134Z,96035.29
2019-05-07T16:40:52.296Z,96034.95
2019-05-07T16:43:30.321Z,96031.43
2019-05-07T16:45:56.923Z,96038.49
2019-05-07T16:48:23.537Z,96030.35
2019-05-07T16:50:52.118Z,96029.72
2019-05-07T16:53:30.186Z,96028.59
2019-05-07T16:56:03.376Z,96017.96
2019-05-07T16:58:43.234Z,96023.02
2019-05-07T17:01:10.667Z,96025.70
2019-05-07T17:06:25.488Z,96025.18
2019-05-07T17:09:13.523Z,96022.80
2019-05-07T17:11:46.274Z,96013.70
2019-05-07T17:14:13.203Z,96022.95
2019-05-07T17:16:48.090Z,96022.02
2019-05-07T17:21:53.858Z,96027.76
2019-05-07T17:24:22.214Z,96037.65
2019-05-07T17:26:58.655Z,96032.77
2019-05-07T17:29:25.324Z,96033.83
2019-05-07T17:31:52.748Z,96038.55
2019-05-07T17:34:30.444Z,96037.67
2019-05-07T17:36:57.064Z,96032.83
2019-05-07T17:39:23.819Z,96043.92
2019-05-07T17:41:51.841Z,96039.65
2019-05-07T17:44:25.069Z,96037.00
2019-05-07T17:46:51.926Z,96039.05
2019-05-07T17:49:32.174Z,96036.81
2019-05-07T17:52:04.860Z,96039.97
2019-05-07T17:54:31.926Z,96040.88
2019-05-07T17:57:06.724Z,96040.39
2019-05-07T17:59:33.386Z,96039.86
2019-05-07T18:02:19.558Z,96038.80
2019-05-07T18:04:51.334Z,96039.36
2019-05-07T18:07:22.302Z,96034.73
2019-05-07T18:09:49.029Z,96039.59
2019-05-07T18:12:15.754Z,96040.64
2019-05-07T18:14:42.577Z,96040.05
2019-05-07T18:20:12.896Z,96032.64
2019-05-07T18:22:46.898Z,96023.39
2019-05-07T18:25:25.476Z,96034.68
2019-05-07T18:27:52.678Z,96033.80
2019-05-07T18:30:32.551Z,96034.23
2019-05-07T18:33:25.119Z,96029.77
2019-05-07T18:35:52.556Z,96035.01
2019-05-07T18:38:26.933Z,96031.30
2019-05-07T18:40:53.758Z,96025.92
2019-05-07T18:43:22.461Z,96028.97
2019-05-07T18:45:55.551Z,96026.09
2019-05-07T18:48:22.460Z,96032.38
2019-05-07T18:50:57.343Z,96030.89
2019-05-07T18:53:24.008Z,96026.95
2019-05-07T18:55:51.724Z,96027.05
2019-05-07T18:58:25.690Z,96027.63
2019-05-07T19:03:32.906Z,96026.69
2019-05-07T19:05:59.690Z,96027.05
2019-05-07T19:08:26.386Z,96031.52
2019-05-07T19:10:53.138Z,96033.25
2019-05-07T19:13:21.972Z,96034.73
2019-05-07T19:15:56.601Z,96030.28
2019-05-07T19:18:33.016Z,96039.28
2019-05-07T19:20:59.732Z,96043.13
2019-05-07T19:23:26.450Z,96039.98
2019-05-07T19:25:53.200Z,96048.94
2019-05-07T19:28:22.216Z,96041.30
2019-05-07T19:30:54.747Z,96031.16
2019-05-07T19:33:26.538Z,96040.38
2019-05-07T19:35:59.818Z,96040.75
2019-05-07T19:38:26.585Z,96039.04
2019-05-07T19:40:53.317Z,96032.41
2019-05-07T19:43:20.070Z,96030.08
2019-05-07T19:45:46.841Z,96030.81
2019-05-07T19:48:13.638Z,96025.28
2019-05-07T19:50:41.955Z,96032.45
2019-05-07T19:53:20.551Z,96030.59
2019-05-07T19:56:13.281Z,96028.78
2019-05-07T19:58:41.933Z,96024.34
2019-05-07T20:04:13.140Z,96026.61
2019-05-07T20:06:49.269Z,96025.30
2019-05-07T20:11:54.653Z,96026.06
2019-05-07T20:14:22.295Z,96028.19
2019-05-07T20:16:56.471Z,96028.95
2019-05-07T20:19:23.193Z,96026.50
2019-05-07T20:21:52.253Z,96029.42
2019-05-07T20:24:28.291Z,96030.41
2019-05-07T20:26:54.917Z,96027.67
2019-05-07T20:29:22.913Z,96024.33
2019-05-07T20:31:56.657Z,96022.98
2019-05-07T20:34:23.545Z,96023.13
2019-05-07T20:36:51.829Z,96028.73
2019-05-07T20:39:25.103Z,96023.08
2019-05-07T20:41:52.662Z,96027.03
2019-05-07T20:44:26.997Z,96028.09
2019-05-07T20:46:53.742Z,96025.93
2019-05-07T20:49:22.494Z,96025.58
2019-05-07T20:51:55.390Z,96027.06
2019-05-07T20:54:42.045Z,96028.75
2019-05-07T20:57:28.213Z,96025.50
2019-05-07T20:59:54.868Z,96016.38
2019-05-07T21:02:22.748Z,96017.01
2019-05-07T21:04:56.664Z,96015.64
2019-05-07T21:07:23.382Z,96012.56
2019-05-07T21:09:50.114Z,96008.80
2019-05-07T21:12:16.777Z,96014.55
2019-05-07T21:14:43.531Z,96010.88
2019-05-07T21:17:11.961Z,96019.75
2019-05-07T21:19:45.022Z,96018.23
2019-05-07T21:22:13.040Z,96020.84
2019-05-07T21:24:49.768Z,96022.16
2019-05-07T21:27:16.478Z,96016.37
2019-05-07T21:29:43.138Z,96016.81
2019-05-07T21:32:09.766Z,96014.25
2019-05-07T21:34:36.492Z,96010.31
2019-05-07T21:37:03.400Z,96008.38
2019-05-07T21:39:38.243Z,96009.13
2019-05-07T21:42:04.974Z,96006.03
2019-05-07T21:44:32.535Z,96007.74
2019-05-07T21:47:06.340Z,96001.31
2019-05-07T21:49:33.090Z,95996.11
2019-05-07T21:52:01.750Z,95992.09
2019-05-07T21:54:53.650Z,95990.26
2019-05-07T21:57:39.754Z,95992.41
2019-05-07T22:00:26.425Z,95985.88
2019-05-07T22:05:47.594Z,95984.76
2019-05-07T22:08:14.217Z,95984.38
2019-05-07T22:10:40.879Z,95985.59
2019-05-07T22:13:07.606Z,95984.28
2019-05-07T22:15:34.247Z,95994.95
2019-05-07T22:18:02.709Z,95989.69
2019-05-07T22:20:35.745Z,95990.52
2019-05-07T22:23:02.893Z,95984.95
2019-05-07T22:25:42.213Z,95992.44
2019-05-07T22:28:15.965Z,95993.31
2019-05-07T22:31:02.386Z,95986.91
2019-05-07T22:36:28.891Z,95992.13
2019-05-07T22:38:55.493Z,95987.26
2019-05-07T22:41:22.555Z,95982.66
2019-05-07T22:44:02.542Z,95977.32
2019-05-07T22:46:35.411Z,95975.47
2019-05-07T22:49:03.100Z,95971.55
2019-05-07T22:51:40.297Z,95970.57
2019-05-07T22:54:06.960Z,95975.39
2019-05-07T22:56:53.058Z,95966.05
2019-05-07T22:59:22.273Z,95972.12
2019-05-07T23:01:54.902Z,95961.31
2019-05-07T23:04:29.687Z,95961.14
2019-05-07T23:06:56.458Z,95956.67
2019-05-07T23:09:23.054Z,95955.20
2019-05-07T23:11:49.700Z,95947.55
2019-05-07T23:14:16.336Z,95951.46
2019-05-07T23:16:43.135Z,95950.56
2019-05-07T23:19:09.763Z,95959.88
2019-05-07T23:21:36.410Z,95956.86
2019-05-07T23:24:03.012Z,95949.23
2019-05-07T23:26:29.650Z,95952.41
2019-05-07T23:28:56.361Z,95942.70
2019-05-07T23:31:23.050Z,95942.09
2019-05-07T23:33:56.716Z,95946.60
2019-05-07T23:36:23.330Z,95945.19
2019-05-07T23:38:51.875Z,95946.13
2019-05-07T23:41:47.819Z,95946.25
2019-05-07T23:44:23.491Z,95939.73
2019-05-07T23:46:51.980Z,95936.59
2019-05-07T23:49:28.642Z,95929.53
2019-05-07T23:51:55.322Z,95930.27
2019-05-07T23:54:23.186Z,95931.81
2019-05-07T23:57:05.780Z,95927.97
2019-05-07T23:59:32.894Z,95925.42
